createdAt,value
2022-10-18T00:02:03.167Z,27.90
2022-10-18T00:04:29.725Z,29.90
2022-10-18T00:06:55.986Z,27.00
2022-10-18T00:09:22.543Z,28.90
2022-10-18T00:11:48.903Z,28.40
2022-10-18T00:14:15.269Z,29.40
2022-10-18T00:16:41.497Z,28.40
2022-10-18T00:19:08.014Z,28.10
2022-10-18T00:21:34.461Z,27.30
2022-10-18T00:24:00.718Z,28.80
2022-10-18T00:26:28.576Z,27.80
2022-10-18T00:29:01.505Z,28.30
2022-10-18T00:31:33.599Z,27.60
2022-10-18T00:34:02.172Z,26.10
2022-10-18T00:36:30.933Z,29.40
2022-10-18T00:38:57.709Z,28.40
2022-10-18T00:41:27.825Z,29.90
2022-10-18T00:43:58.800Z,31.00
2022-10-18T00:46:28.712Z,28.90
2022-10-18T00:49:05.678Z,27.10
2022-10-18T00:51:43.583Z,27.00
2022-10-18T00:54:11.630Z,29.40
2022-10-18T00:56:38.301Z,28.20
2022-10-18T00:59:06.434Z,28.40
2022-10-18T01:01:32.707Z,28.80
2022-10-18T01:03:59.107Z,29.80
2022-10-18T01:06:27.505Z,29.30
2022-10-18T01:09:11.918Z,29.10
2022-10-18T01:11:38.089Z,28.30
2022-10-18T01:14:07.329Z,30.40
2022-10-18T01:16:41.474Z,29.30
2022-10-18T01:19:27.770Z,29.50
2022-10-18T01:22:01.450Z,30.40
2022-10-18T01:24:45.278Z,29.90
2022-10-18T01:27:43.624Z,28.90
2022-10-18T01:30:15.942Z,28.90
2022-10-18T01:32:47.959Z,27.90
2022-10-18T01:35:20.326Z,29.60
2022-10-18T01:37:50.239Z,30.50
2022-10-18T01:40:20.053Z,29.10
2022-10-18T01:42:48.616Z,29.50
2022-10-18T01:45:16.376Z,31.30
2022-10-18T01:47:45.575Z,30.70
2022-10-18T01:50:12.837Z,30.30
2022-10-18T01:52:55.118Z,32.50
2022-10-18T01:55:27.002Z,31.60
2022-10-18T01:58:25.170Z,30.40
2022-10-18T02:01:03.021Z,32.50
2022-10-18T02:03:29.275Z,33.80
2022-10-18T02:06:06.090Z,36.10
2022-10-18T02:08:43.300Z,31.70
2022-10-18T02:11:12.358Z,29.80
2022-10-18T02:14:01.846Z,30.80
2022-10-18T02:16:38.403Z,31.60
2022-10-18T02:21:54.212Z,30.80
2022-10-18T02:24:22.994Z,30.70
2022-10-18T02:26:49.550Z,31.80
2022-10-18T02:29:15.930Z,32.80
2022-10-18T02:31:48.948Z,31.10
2022-10-18T02:34:18.317Z,36.10
2022-10-18T02:36:49.463Z,34.20
2022-10-18T02:39:20.426Z,32.90
2022-10-18T02:41:46.780Z,32.20
2022-10-18T02:44:13.041Z,32.40
2022-10-18T02:46:39.857Z,32.70
2022-10-18T02:49:06.259Z,32.30
2022-10-18T02:51:33.015Z,30.80
2022-10-18T02:53:59.300Z,34.20
2022-10-18T02:56:25.552Z,33.30
2022-10-18T02:58:51.794Z,32.10
2022-10-18T03:01:18.049Z,34.10
2022-10-18T03:03:44.450Z,33.80
2022-10-18T03:06:10.687Z,34.50
2022-10-18T03:08:37.398Z,32.80
2022-10-18T03:11:03.757Z,33.70
2022-10-18T03:15:56.513Z,34.50
2022-10-18T03:18:22.868Z,35.20
2022-10-18T03:20:49.088Z,37.80
2022-10-18T03:23:15.296Z,34.90
2022-10-18T03:25:44.213Z,36.50
2022-10-18T03:28:12.669Z,35.90
2022-10-18T03:30:38.924Z,35.60
2022-10-18T03:33:06.167Z,34.60
2022-10-18T03:35:32.421Z,35.20
2022-10-18T03:37:58.670Z,36.00
2022-10-18T03:40:25.053Z,35.90
2022-10-18T03:42:51.318Z,34.30
2022-10-18T03:45:17.606Z,34.00
2022-10-18T03:47:43.836Z,35.00
2022-10-18T03:50:10.195Z,35.10
2022-10-18T03:52:36.476Z,33.20
2022-10-18T03:55:03.243Z,34.70
2022-10-18T03:57:29.975Z,35.40
2022-10-18T03:59:56.193Z,34.30
2022-10-18T04:02:22.550Z,35.20
2022-10-18T04:04:48.823Z,34.50
2022-10-18T04:07:15.402Z,35.00
2022-10-18T04:09:41.669Z,37.00
2022-10-18T04:12:07.884Z,38.60
2022-10-18T04:14:34.113Z,36.80
2022-10-18T04:17:00.352Z,39.80
2022-10-18T04:19:27.096Z,38.90
2022-10-18T04:21:53.634Z,35.80
2022-10-18T04:24:19.907Z,38.10
2022-10-18T04:26:46.245Z,39.70
2022-10-18T04:29:12.626Z,39.50
2022-10-18T04:31:39.102Z,41.40
2022-10-18T04:34:05.363Z,39.30
2022-10-18T04:36:31.666Z,43.10
2022-10-18T04:38:57.938Z,40.50
2022-10-18T04:41:24.219Z,40.90
2022-10-18T04:43:50.454Z,40.00
2022-10-18T04:46:16.770Z,43.10
2022-10-18T04:48:43.033Z,41.20
2022-10-18T04:51:09.235Z,40.90
2022-10-18T04:53:35.527Z,40.70
2022-10-18T04:56:01.810Z,41.70
2022-10-18T04:58:28.092Z,39.30
2022-10-18T05:00:54.362Z,38.90
2022-10-18T05:03:20.710Z,41.20
2022-10-18T05:06:03.153Z,42.30
2022-10-18T05:08:34.667Z,40.80
2022-10-18T05:11:02.560Z,39.40
2022-10-18T05:13:29.292Z,40.40
2022-10-18T05:15:55.612Z,40.30
2022-10-18T05:18:21.886Z,41.80
2022-10-18T05:20:48.097Z,51.70
2022-10-18T05:23:14.318Z,44.70
2022-10-18T05:25:42.030Z,47.20
2022-10-18T05:28:34.722Z,43.80
2022-10-18T05:30:55.479Z,46.10
2022-10-18T05:33:21.832Z,44.90
2022-10-18T05:35:48.155Z,49.50
2022-10-18T05:38:14.362Z,44.60
2022-10-18T05:40:40.619Z,51.40
2022-10-18T05:43:06.848Z,48.10
2022-10-18T05:45:33.112Z,45.30
2022-10-18T05:47:59.337Z,56.20
2022-10-18T05:50:25.575Z,61.00
2022-10-18T05:53:02.672Z,73.00
2022-10-18T05:55:38.945Z,72.40
2022-10-18T05:58:05.260Z,59.90
2022-10-18T06:00:31.560Z,48.70
2022-10-18T06:03:00.241Z,43.30
2022-10-18T06:05:27.287Z,42.60
2022-10-18T06:07:53.736Z,41.90
2022-10-18T06:10:20.021Z,40.80
2022-10-18T06:12:46.362Z,39.90
2022-10-18T06:15:12.831Z,41.80
2022-10-18T06:17:43.944Z,40.60
2022-10-18T06:20:48.218Z,41.90
2022-10-18T06:23:48.845Z,38.80
2022-10-18T06:26:19.389Z,39.00
2022-10-18T06:28:50.805Z,39.30
2022-10-18T06:31:20.737Z,40.00
2022-10-18T06:33:47.486Z,43.40
2022-10-18T06:36:17.154Z,42.20
2022-10-18T06:38:43.629Z,42.10
2022-10-18T06:41:10.202Z,45.10
2022-10-18T06:43:36.470Z,43.70
2022-10-18T06:46:06.208Z,46.20
2022-10-18T06:48:35.646Z,49.40
2022-10-18T06:51:04.769Z,46.90
2022-10-18T06:53:33.260Z,44.00
2022-10-18T06:56:06.001Z,44.80
2022-10-18T06:58:34.293Z,43.60
2022-10-18T07:01:17.267Z,43.80
2022-10-18T07:03:46.348Z,44.40
2022-10-18T07:06:15.001Z,42.70
2022-10-18T07:08:42.113Z,43.30
2022-10-18T07:11:14.682Z,40.80
2022-10-18T07:13:41.361Z,41.40
2022-10-18T07:16:14.099Z,40.40
2022-10-18T07:18:47.535Z,42.40
2022-10-18T07:21:15.206Z,40.10
2022-10-18T07:23:43.478Z,42.60
2022-10-18T07:26:17.341Z,40.80
2022-10-18T07:28:46.679Z,41.70
2022-10-18T07:31:13.140Z,42.10
2022-10-18T07:33:42.228Z,41.40
2022-10-18T07:36:10.875Z,43.20
2022-10-18T07:38:37.605Z,42.50
2022-10-18T07:41:06.115Z,41.60
2022-10-18T07:43:33.595Z,40.70
2022-10-18T07:46:02.012Z,43.00
2022-10-18T07:48:28.502Z,42.80
2022-10-18T07:50:58.715Z,41.80
2022-10-18T07:53:24.936Z,42.10
2022-10-18T07:55:52.401Z,41.80
2022-10-18T07:58:18.654Z,43.60
2022-10-18T08:00:44.873Z,40.80
2022-10-18T08:03:11.189Z,41.30
2022-10-18T08:05:37.425Z,38.70
2022-10-18T08:08:07.203Z,39.50
2022-10-18T08:10:35.496Z,38.20
2022-10-18T08:13:01.773Z,38.30
2022-10-18T08:15:28.026Z,37.50
2022-10-18T08:17:54.251Z,37.30
2022-10-18T08:20:30.351Z,36.00
2022-10-18T08:23:00.072Z,35.90
2022-10-18T08:25:28.292Z,33.90
2022-10-18T08:27:54.548Z,33.30
2022-10-18T08:30:22.627Z,35.80
2022-10-18T08:32:48.869Z,34.80
2022-10-18T08:35:15.241Z,36.50
2022-10-18T08:37:41.442Z,36.80
2022-10-18T08:40:12.429Z,36.00
2022-10-18T08:42:57.216Z,34.80
2022-10-18T08:45:40.894Z,35.50
2022-10-18T08:48:18.232Z,36.60
2022-10-18T08:50:46.045Z,35.80
2022-10-18T08:53:36.301Z,36.40
2022-10-18T08:56:13.939Z,37.10
2022-10-18T08:58:44.906Z,38.90
2022-10-18T09:01:27.096Z,37.90
2022-10-18T09:04:06.553Z,37.60
2022-10-18T09:06:51.583Z,37.10
2022-10-18T09:09:33.774Z,37.90
2022-10-18T09:12:15.960Z,36.50
2022-10-18T09:15:04.194Z,36.70
2022-10-18T09:18:07.780Z,36.20
2022-10-18T09:21:04.590Z,36.40
2022-10-18T09:23:49.195Z,37.30
2022-10-18T09:26:19.994Z,36.80
2022-10-18T09:31:44.298Z,36.90
2022-10-18T09:34:24.635Z,37.50
2022-10-18T09:36:51.811Z,36.60
2022-10-18T09:39:22.445Z,34.30
2022-10-18T09:42:28.172Z,36.60
2022-10-18T09:45:05.572Z,36.30
2022-10-18T09:47:38.692Z,35.90
2022-10-18T09:50:23.542Z,34.20
2022-10-18T09:53:12.785Z,37.90
2022-10-18T09:55:54.731Z,35.50
2022-10-18T09:58:24.434Z,37.80
2022-10-18T10:00:52.637Z,40.70
2022-10-18T10:03:19.219Z,43.80
2022-10-18T10:05:46.239Z,40.50
2022-10-18T10:08:12.621Z,43.20
2022-10-18T10:10:45.118Z,39.30
2022-10-18T10:13:23.711Z,42.20
2022-10-18T10:15:59.856Z,37.90
2022-10-18T10:18:32.420Z,35.40
2022-10-18T10:21:02.388Z,37.10
2022-10-18T10:23:33.088Z,37.30
2022-10-18T10:26:22.180Z,37.90
2022-10-18T10:28:49.220Z,35.40
2022-10-18T10:31:32.645Z,37.50
2022-10-18T10:34:13.988Z,34.00
2022-10-18T10:36:50.695Z,37.10
2022-10-18T10:39:19.277Z,36.70
2022-10-18T10:41:54.227Z,36.40
2022-10-18T10:44:28.413Z,37.50
2022-10-18T10:46:55.156Z,36.50
2022-10-18T10:49:39.680Z,38.70
2022-10-18T10:52:26.944Z,36.20
2022-10-18T10:55:05.782Z,35.40
2022-10-18T10:57:46.250Z,35.40
2022-10-18T11:00:44.481Z,36.20
2022-10-18T11:03:27.879Z,36.20
2022-10-18T11:05:57.035Z,38.70
2022-10-18T11:08:32.522Z,37.70
2022-10-18T11:11:02.223Z,39.30
2022-10-18T11:13:41.519Z,38.40
2022-10-18T11:16:38.746Z,36.20
2022-10-18T11:19:25.147Z,37.00
2022-10-18T11:21:55.989Z,36.00
2022-10-18T11:24:23.333Z,35.50
2022-10-18T11:27:05.632Z,34.50
2022-10-18T11:29:38.141Z,30.30
2022-10-18T11:32:04.377Z,31.70
2022-10-18T11:34:45.935Z,31.60
2022-10-18T11:37:44.698Z,30.60
2022-10-18T11:40:40.878Z,28.40
2022-10-18T11:43:07.086Z,30.00
2022-10-18T11:45:59.827Z,30.60
2022-10-18T11:48:32.040Z,31.40
2022-10-18T11:51:26.491Z,21.70
2022-10-18T11:54:29.166Z,17.50
2022-10-18T11:57:17.600Z,16.10
2022-10-18T12:00:08.146Z,14.90
2022-10-18T12:03:02.824Z,13.70
2022-10-18T12:08:01.957Z,12.70
2022-10-18T12:10:44.482Z,12.70
2022-10-18T12:13:36.842Z,14.60
2022-10-18T12:16:06.145Z,14.00
2022-10-18T12:18:35.277Z,13.40
2022-10-18T12:21:01.944Z,16.80
2022-10-18T12:24:00.189Z,14.70
2022-10-18T12:26:28.470Z,15.30
2022-10-18T12:28:57.614Z,15.00
2022-10-18T12:31:33.045Z,13.30
2022-10-18T12:34:10.218Z,13.50
2022-10-18T12:36:52.545Z,12.80
2022-10-18T12:39:37.494Z,13.60
2022-10-18T12:42:27.758Z,12.70
2022-10-18T12:45:25.635Z,16.30
2022-10-18T12:47:52.787Z,13.40
2022-10-18T12:50:30.369Z,13.10
2022-10-18T12:53:08.794Z,11.70
2022-10-18T12:55:40.883Z,11.60
2022-10-18T12:58:13.253Z,12.30
2022-10-18T13:00:42.458Z,13.20
2022-10-18T13:03:11.526Z,12.00
2022-10-18T13:05:57.304Z,11.90
2022-10-18T13:08:26.274Z,11.00
2022-10-18T13:11:11.283Z,11.10
2022-10-18T13:13:57.402Z,9.80
2022-10-18T13:16:30.527Z,9.40
2022-10-18T13:19:15.861Z,8.30
2022-10-18T13:22:05.224Z,8.40
2022-10-18T13:24:45.004Z,9.10
2022-10-18T13:27:36.340Z,8.70
2022-10-18T13:30:17.908Z,9.90
2022-10-18T13:33:00.145Z,10.10
2022-10-18T13:35:45.148Z,8.00
2022-10-18T13:38:46.293Z,9.40
2022-10-18T13:41:21.671Z,9.40
2022-10-18T13:44:06.980Z,8.30
2022-10-18T13:46:33.215Z,8.80
2022-10-18T13:49:30.289Z,8.60
2022-10-18T13:52:19.739Z,8.80
2022-10-18T13:55:15.956Z,8.90
2022-10-18T13:57:58.169Z,9.00
2022-10-18T14:00:49.061Z,9.70
2022-10-18T14:03:26.956Z,9.00
2022-10-18T14:06:33.832Z,9.00
2022-10-18T14:09:40.204Z,10.00
2022-10-18T14:12:33.784Z,10.10
2022-10-18T14:15:23.176Z,10.30
2022-10-18T14:18:21.395Z,10.70
2022-10-18T14:21:12.795Z,10.70
2022-10-18T14:23:43.940Z,10.60
2022-10-18T14:26:15.961Z,11.70
2022-10-18T14:29:00.256Z,12.30
2022-10-18T14:31:27.459Z,10.70
2022-10-18T14:33:57.878Z,11.60
2022-10-18T14:36:26.393Z,12.00
2022-10-18T14:39:01.796Z,11.20
2022-10-18T14:41:39.574Z,12.10
2022-10-18T14:44:26.750Z,12.90
2022-10-18T14:47:24.938Z,12.60
2022-10-18T14:49:57.032Z,12.70
2022-10-18T14:52:29.475Z,13.20
2022-10-18T14:54:58.897Z,13.60
2022-10-18T14:57:32.585Z,14.60
2022-10-18T15:00:06.694Z,14.60
2022-10-18T15:02:36.703Z,16.10
2022-10-18T15:05:19.856Z,15.70
2022-10-18T15:07:47.543Z,17.00
2022-10-18T15:10:20.720Z,16.70
2022-10-18T15:13:08.735Z,17.40
2022-10-18T15:15:35.411Z,18.40
2022-10-18T15:18:04.371Z,18.40
2022-10-18T15:20:34.395Z,20.60
2022-10-18T15:23:25.304Z,21.00
2022-10-18T15:26:01.638Z,21.80
2022-10-18T15:28:38.656Z,25.80
2022-10-18T15:31:06.099Z,23.60
2022-10-18T15:33:33.979Z,22.80
2022-10-18T15:36:22.293Z,22.00
2022-10-18T15:38:50.056Z,26.00
2022-10-18T15:41:37.736Z,30.10
2022-10-18T15:44:20.037Z,27.40
2022-10-18T15:46:47.225Z,27.70
2022-10-18T15:49:45.506Z,28.90
2022-10-18T15:52:43.701Z,26.50
2022-10-18T15:55:29.020Z,27.20
2022-10-18T15:58:11.236Z,29.20
2022-10-18T16:00:37.505Z,29.00
2022-10-18T16:03:03.888Z,28.60
2022-10-18T16:05:30.114Z,28.00
2022-10-18T16:07:56.333Z,29.70
2022-10-18T16:10:22.599Z,28.20
2022-10-18T16:12:48.865Z,29.90
2022-10-18T16:15:15.193Z,27.80
2022-10-18T16:21:29.183Z,25.90
2022-10-18T16:23:56.007Z,24.10
2022-10-18T16:26:41.748Z,25.30
2022-10-18T16:29:31.278Z,27.50
2022-10-18T16:31:58.062Z,26.80
2022-10-18T16:34:26.523Z,26.20
2022-10-18T16:36:52.870Z,25.60
2022-10-18T16:39:21.012Z,25.00
2022-10-18T16:41:47.629Z,25.50
2022-10-18T16:44:16.019Z,24.80
2022-10-18T16:46:42.317Z,26.20
2022-10-18T16:49:18.043Z,27.40
2022-10-18T16:51:44.354Z,25.70
2022-10-18T16:54:10.670Z,27.20
2022-10-18T16:56:38.490Z,27.30
2022-10-18T16:59:05.031Z,25.30
2022-10-18T17:01:31.508Z,26.10
2022-10-18T17:03:57.861Z,28.30
2022-10-18T17:06:27.098Z,24.70
2022-10-18T17:08:55.171Z,26.70
2022-10-18T17:11:23.659Z,24.90
2022-10-18T17:13:50.596Z,25.20
2022-10-18T17:18:55.762Z,26.40
2022-10-18T17:21:23.342Z,25.20
2022-10-18T17:23:49.943Z,29.10
2022-10-18T17:26:28.909Z,29.00
2022-10-18T17:28:59.590Z,29.80
2022-10-18T17:31:27.404Z,29.40
2022-10-18T17:33:55.591Z,30.90
2022-10-18T17:36:21.906Z,31.90
2022-10-18T17:38:55.955Z,32.40
2022-10-18T17:41:24.583Z,33.10
2022-10-18T17:43:54.220Z,32.40
2022-10-18T17:46:28.449Z,30.00
2022-10-18T17:48:54.944Z,31.20
2022-10-18T17:51:22.269Z,30.30
2022-10-18T17:53:54.784Z,30.30
2022-10-18T17:56:22.671Z,30.80
2022-10-18T17:58:52.154Z,29.10
2022-10-18T18:01:23.602Z,28.50
2022-10-18T18:03:56.444Z,28.70
2022-10-18T18:06:30.113Z,30.30
2022-10-18T18:08:58.293Z,29.70
2022-10-18T18:11:38.846Z,29.80
2022-10-18T18:14:12.199Z,30.70
2022-10-18T18:16:45.136Z,31.40
2022-10-18T18:19:27.323Z,31.30
2022-10-18T18:22:15.055Z,29.20
2022-10-18T18:24:42.308Z,31.50
2022-10-18T18:27:09.749Z,31.10
2022-10-18T18:29:48.651Z,31.90
2022-10-18T18:32:21.057Z,33.70
2022-10-18T18:35:18.145Z,33.30
2022-10-18T18:37:51.442Z,33.00
2022-10-18T18:40:17.834Z,34.00
2022-10-18T18:42:56.762Z,33.60
2022-10-18T18:45:32.089Z,33.50
2022-10-18T18:47:58.437Z,34.60
2022-10-18T18:50:24.883Z,34.10
2022-10-18T18:52:51.156Z,34.00
2022-10-18T18:55:17.430Z,33.90
2022-10-18T18:57:44.061Z,35.90
2022-10-18T19:00:14.310Z,35.20
2022-10-18T19:02:40.724Z,39.10
2022-10-18T19:05:07.065Z,36.80
2022-10-18T19:07:36.107Z,38.30
2022-10-18T19:10:04.504Z,38.30
2022-10-18T19:12:30.909Z,39.50
2022-10-18T19:14:59.289Z,38.90
2022-10-18T19:17:26.467Z,37.80
2022-10-18T19:19:53.427Z,37.40
2022-10-18T19:22:20.053Z,35.10
2022-10-18T19:24:46.456Z,33.30
2022-10-18T19:27:23.790Z,35.20
2022-10-18T19:29:50.178Z,33.00
2022-10-18T19:32:18.253Z,33.00
2022-10-18T19:34:47.842Z,31.00
2022-10-18T19:37:15.055Z,29.00
2022-10-18T19:39:42.254Z,27.50
2022-10-18T19:42:12.620Z,26.40
2022-10-18T19:44:41.105Z,25.70
2022-10-18T19:47:11.238Z,22.50
2022-10-18T19:49:39.213Z,21.90
2022-10-18T19:52:05.674Z,22.50
2022-10-18T19:54:32.824Z,21.60
2022-10-18T19:56:59.294Z,21.80
2022-10-18T19:59:29.009Z,20.50
2022-10-18T20:01:56.582Z,17.70
2022-10-18T20:04:55.141Z,16.60
2022-10-18T20:10:38.939Z,11.40
2022-10-18T20:13:15.719Z,11.80
2022-10-18T20:15:50.451Z,11.80
2022-10-18T20:18:23.880Z,12.20
2022-10-18T20:21:00.349Z,13.40
2022-10-18T20:23:47.136Z,13.80
2022-10-18T20:26:27.267Z,16.50
2022-10-18T20:29:08.977Z,13.40
2022-10-18T20:32:01.873Z,14.10
2022-10-18T20:34:31.116Z,12.80
2022-10-18T20:37:04.952Z,14.80
2022-10-18T20:39:39.649Z,14.40
2022-10-18T20:42:08.216Z,16.90
2022-10-18T20:44:36.938Z,15.60
2022-10-18T20:47:12.069Z,15.80
2022-10-18T20:49:40.703Z,14.20
2022-10-18T20:52:07.340Z,14.30
2022-10-18T20:54:35.802Z,13.20
2022-10-18T20:57:03.511Z,11.90
2022-10-18T20:59:30.237Z,12.00
2022-10-18T21:01:59.694Z,12.00
2022-10-18T21:04:26.506Z,10.90
2022-10-18T21:06:53.989Z,10.80
2022-10-18T21:09:23.845Z,9.50
2022-10-18T21:11:57.321Z,9.90
2022-10-18T21:14:24.066Z,9.20
2022-10-18T21:16:51.968Z,8.90
2022-10-18T21:19:25.864Z,8.00
2022-10-18T21:22:00.312Z,8.10
2022-10-18T21:24:32.669Z,6.90
2022-10-18T21:27:00.461Z,8.60
2022-10-18T21:29:27.020Z,7.90
2022-10-18T21:32:00.331Z,8.70
2022-10-18T21:34:46.106Z,7.90
2022-10-18T21:37:13.267Z,7.00
2022-10-18T21:42:36.992Z,7.40
2022-10-18T21:45:11.077Z,7.40
2022-10-18T21:47:45.250Z,7.50
2022-10-18T21:50:26.823Z,7.40
2022-10-18T21:53:04.351Z,9.70
2022-10-18T21:55:36.874Z,9.00
2022-10-18T21:58:06.120Z,10.80
2022-10-18T22:00:43.315Z,9.10
2022-10-18T22:04:13.460Z,11.30
2022-10-18T22:09:59.955Z,9.40
2022-10-18T22:12:46.397Z,9.90
2022-10-18T22:15:14.673Z,11.50
2022-10-18T22:17:45.901Z,10.40
2022-10-18T22:20:18.371Z,10.10
2022-10-18T22:22:46.973Z,9.40
2022-10-18T22:25:21.333Z,9.10
2022-10-18T22:27:49.591Z,9.10
2022-10-18T22:30:16.750Z,8.60
2022-10-18T22:32:43.408Z,7.70
2022-10-18T22:35:15.118Z,8.90
2022-10-18T22:37:48.126Z,9.70
2022-10-18T22:40:15.439Z,9.20
2022-10-18T22:42:41.933Z,9.00
2022-10-18T22:45:22.204Z,8.10
2022-10-18T22:47:54.786Z,9.20
2022-10-18T22:50:24.692Z,9.20
2022-10-18T22:52:58.790Z,9.30
2022-10-18T22:55:32.108Z,9.10
2022-10-18T22:58:10.220Z,9.20
2022-10-18T23:00:43.005Z,8.30
2022-10-18T23:03:11.723Z,9.40
2022-10-18T23:05:46.938Z,8.60
2022-10-18T23:08:26.459Z,9.20
2022-10-18T23:10:57.911Z,8.90
2022-10-18T23:13:28.371Z,8.60
2022-10-18T23:16:04.618Z,8.70
2022-10-18T23:18:35.895Z,9.00
2022-10-18T23:21:12.635Z,7.50
2022-10-18T23:23:41.935Z,9.30
2022-10-18T23:26:19.509Z,8.10
2022-10-18T23:28:48.826Z,9.60
2022-10-18T23:31:23.054Z,8.90
2022-10-18T23:33:56.317Z,12.50
2022-10-18T23:36:29.226Z,8.30
2022-10-18T23:38:58.088Z,8.80
2022-10-18T23:41:29.171Z,8.20
2022-10-18T23:44:22.446Z,9.30
2022-10-18T23:47:01.798Z,9.80
2022-10-18T23:49:31.482Z,8.20
2022-10-18T23:52:05.193Z,8.10
2022-10-18T23:54:38.225Z,8.00
2022-10-18T23:57:10.563Z,8.00
2022-10-18T23:59:37.007Z,9.90
